Time;durP1;ratioP1;P1;durP2;ratioP2;P2;SDS_P1;SDS_P2;PMS_P1;PMS_P2;Temp;Humidity;BMP_temperature;BMP_pressure;BME280_temperature;BME280_humidity;BME280_pressure;Samples;Min_cycle;Max_cycle;Signal;HPM_P1;HPM_P2
2021/08/17 00:00:25;;;;;;;22.67;10.65;;;;;;;16.17;96.36;96383.56;4975318;28;20204;-68
2021/08/17 00:02:51;;;;;;;22.98;9.55;;;;;;;16.00;94.79;96381.56;4975653;28;20203;-69
2021/08/17 00:05:18;;;;;;;24.67;10.93;;;;;;;16.14;96.61;96388.47;4975124;28;20227;-68
2021/08/17 00:07:44;;;;;;;25.52;10.85;;;;;;;16.14;97.53;96389.28;4972600;28;20214;-69
2021/08/17 00:10:11;;;;;;;23.92;10.25;;;;;;;15.97;99.76;96414.69;4975750;28;20735;-68
2021/08/17 00:12:39;;;;;;;13.68;5.30;;;;;;;15.72;97.11;96414.66;4975404;28;20211;-67
2021/08/17 00:15:08;;;;;;;8.55;3.40;;;;;;;15.33;95.65;96419.94;4975309;28;20227;-68
2021/08/17 00:17:35;;;;;;;10.00;4.18;;;;;;;15.50;95.93;96410.56;4975066;28;20242;-68
2021/08/17 00:20:01;;;;;;;5.78;2.70;;;;;;;15.36;94.05;96419.53;4975668;28;20222;-68
2021/08/17 00:22:28;;;;;;;6.03;2.88;;;;;;;15.55;93.60;96419.56;4975520;28;20207;-68
2021/08/17 00:24:54;;;;;;;3.72;1.98;;;;;;;15.14;93.29;96426.00;4975466;28;20238;-68
2021/08/17 00:27:21;;;;;;;4.07;1.95;;;;;;;15.32;94.32;96423.63;4974409;28;20281;-68
2021/08/17 00:29:49;;;;;;;4.10;2.10;;;;;;;15.67;92.98;96423.25;4975440;28;20679;-68
2021/08/17 00:32:16;;;;;;;4.25;2.20;;;;;;;15.34;92.24;96427.72;4975259;28;20207;-68
2021/08/17 00:34:42;;;;;;;6.47;3.00;;;;;;;15.57;91.74;96406.09;4975250;28;20263;-68
2021/08/17 00:37:09;;;;;;;4.00;1.73;;;;;;;15.32;92.92;96415.66;4974149;28;21116;-68
2021/08/17 00:39:37;;;;;;;2.47;1.52;;;;;;;15.65;93.96;96408.53;4975637;28;20199;-68
2021/08/17 00:42:07;;;;;;;5.35;1.67;;;;;;;15.71;93.18;96410.41;4974994;28;20207;-68
2021/08/17 00:44:34;;;;;;;2.70;1.55;;;;;;;15.42;91.92;96426.69;4975334;28;20228;-68
2021/08/17 00:47:02;;;;;;;3.40;1.20;;;;;;;15.44;91.39;96422.00;4974082;28;20227;-68
2021/08/17 00:49:29;;;;;;;3.63;1.60;;;;;;;15.32;91.52;96423.63;4976063;28;20215;-68
2021/08/17 00:51:59;;;;;;;2.63;1.23;;;;;;;15.59;90.37;96417.31;4975481;28;20203;-68
2021/08/17 00:54:25;;;;;;;2.30;1.10;;;;;;;15.44;90.23;96419.34;4974847;28;20609;-68
2021/08/17 00:56:54;;;;;;;1.48;0.88;;;;;;;15.29;88.15;96438.09;4974621;28;20572;-69
2021/08/17 00:59:21;;;;;;;3.92;0.98;;;;;;;15.02;89.33;96437.38;4975233;28;20235;-68
2021/08/17 01:01:47;;;;;;;1.92;0.95;;;;;;;15.06;89.60;96439.44;4974756;28;20211;-68
2021/08/17 01:04:15;;;;;;;2.35;1.13;;;;;;;15.09;89.96;96433.72;4974835;28;20231;-68
2021/08/17 01:06:42;;;;;;;3.05;1.20;;;;;;;15.23;89.31;96424.00;4971487;28;20231;-68
2021/08/17 01:09:09;;;;;;;2.30;1.10;;;;;;;15.28;88.42;96423.19;4974729;28;20207;-68
2021/08/17 01:11:36;;;;;;;1.85;1.00;;;;;;;15.42;89.60;96424.03;4975407;28;20203;-68
2021/08/17 01:14:03;;;;;;;4.30;1.13;;;;;;;15.06;88.93;96434.13;4974630;28;20222;-68
2021/08/17 01:16:30;;;;;;;6.03;1.45;;;;;;;15.09;89.55;96436.38;4973989;28;20210;-68
2021/08/17 01:18:56;;;;;;;1.55;0.85;;;;;;;15.11;89.84;96447.63;4974700;28;20219;-68
2021/08/17 01:21:24;;;;;;;4.70;1.20;;;;;;;14.79;91.07;96453.63;4974936;28;20582;-68
2021/08/17 01:23:51;;;;;;;3.10;0.95;;;;;;;14.85;91.20;96452.81;4974447;28;20238;-68
2021/08/17 01:26:19;;;;;;;1.70;1.00;;;;;;;15.05;90.01;96445.75;4973840;28;20599;-68
2021/08/17 01:28:45;;;;;;;1.70;1.00;;;;;;;14.82;90.99;96463.84;4974781;28;20218;-68
2021/08/17 01:31:12;;;;;;;1.17;0.80;;;;;;;14.93;90.36;96465.94;4974625;28;20207;-68
2021/08/17 01:33:38;;;;;;;1.92;1.10;;;;;;;15.01;90.49;96468.41;4974262;28;20223;-69
2021/08/17 01:36:05;;;;;;;2.58;1.10;;;;;;;15.31;91.26;96464.44;4973998;28;20203;-68
2021/08/17 01:38:32;;;;;;;1.90;1.00;;;;;;;15.38;91.13;96475.94;4974209;28;20206;-68
2021/08/17 01:40:59;;;;;;;2.65;0.82;;;;;;;14.96;91.65;96492.06;4974388;28;20203;-69
2021/08/17 01:43:26;;;;;;;1.75;0.90;;;;;;;15.04;91.26;96483.94;4974367;28;20281;-68
2021/08/17 01:45:55;;;;;;;1.52;1.05;;;;;;;14.98;92.32;96494.53;4973716;28;20571;-68
2021/08/17 01:48:24;;;;;;;4.07;1.30;;;;;;;14.88;91.20;96500.22;4974715;28;20639;-68
2021/08/17 01:50:50;;;;;;;3.42;1.50;;;;;;;14.94;93.55;96496.78;4974781;28;20218;-68
2021/08/17 01:53:17;;;;;;;1.88;1.40;;;;;;;14.88;92.97;96499.38;4974147;28;20224;-68
2021/08/17 01:55:43;;;;;;;2.38;1.42;;;;;;;14.73;92.99;96511.97;4972898;28;20214;-68
2021/08/17 01:58:10;;;;;;;3.50;1.70;;;;;;;14.79;93.76;96519.13;4977391;28;20199;-68
2021/08/17 02:00:37;;;;;;;3.53;1.90;;;;;;;14.91;94.96;96520.22;4977984;28;20203;-68
2021/08/17 02:03:04;;;;;;;3.90;1.58;;;;;;;14.41;93.88;96519.69;4977350;28;20527;-68
2021/08/17 02:05:30;;;;;;;3.85;1.65;;;;;;;14.48;94.36;96523.22;4976831;28;20215;-68
2021/08/17 02:07:57;;;;;;;1.55;0.88;;;;;;;14.26;94.60;96519.00;4975661;28;20223;-69
2021/08/17 02:10:23;;;;;;;5.00;2.25;;;;;;;14.20;94.09;96525.06;4977232;28;20226;-68
2021/08/17 02:12:50;;;;;;;5.13;2.40;;;;;;;14.26;93.86;96526.94;4977874;28;20208;-68
2021/08/17 02:15:16;;;;;;;6.38;2.47;;;;;;;14.21;94.01;96527.50;4976409;28;20207;-68
2021/08/17 02:17:44;;;;;;;6.72;2.30;;;;;;;14.47;94.11;96522.38;4977461;28;20200;-68
2021/08/17 02:20:12;;;;;;;5.47;2.38;;;;;;;14.29;93.39;96515.94;4977214;28;20210;-69
2021/08/17 02:22:39;;;;;;;9.55;2.42;;;;;;;14.21;93.05;96532.00;4978068;28;20863;-68
2021/08/17 02:25:07;;;;;;;8.60;2.60;;;;;;;14.27;91.88;96525.94;4976909;28;20238;-68
2021/08/17 02:27:34;;;;;;;8.65;2.88;;;;;;;14.18;91.66;96535.03;4976418;28;20242;-68
2021/08/17 02:30:01;;;;;;;7.18;2.90;;;;;;;13.88;91.55;96528.22;4977021;28;20203;-68
2021/08/17 02:32:28;;;;;;;5.85;2.65;;;;;;;13.78;91.28;96532.19;4977140;28;21023;-68
2021/08/17 02:34:56;;;;;;;7.43;3.43;;;;;;;13.95;91.92;96534.41;4973709;28;20239;-68
2021/08/17 02:37:22;;;;;;;7.53;3.83;;;;;;;13.80;90.31;96538.94;4976014;28;20195;-68
2021/08/17 02:39:49;;;;;;;8.90;3.42;;;;;;;14.14;89.16;96544.38;4977088;28;20215;-68
2021/08/17 02:42:15;;;;;;;6.40;3.40;;;;;;;14.03;88.89;96544.88;4977253;28;20906;-68
2021/08/17 02:44:42;;;;;;;9.20;3.57;;;;;;;13.90;88.93;96552.69;4976406;28;20223;-68
2021/08/17 02:47:09;;;;;;;7.20;3.70;;;;;;;13.99;89.22;96546.25;4976459;28;20219;-70
2021/08/17 02:49:35;;;;;;;11.77;3.53;;;;;;;13.70;87.94;96553.50;4976954;28;20211;-68
2021/08/17 02:52:04;;;;;;;8.15;3.67;;;;;;;14.23;88.28;96561.78;4977016;28;20211;-68
2021/08/17 02:54:31;;;;;;;12.40;4.20;;;;;;;14.30;87.71;96565.31;4976700;28;20235;-68
2021/08/17 02:56:58;;;;;;;12.60;3.85;;;;;;;14.17;88.03;96562.56;4975765;28;20206;-68
2021/08/17 02:59:24;;;;;;;12.13;3.83;;;;;;;14.14;88.45;96562.91;4977229;28;20203;-68
2021/08/17 03:01:51;;;;;;;8.13;3.90;;;;;;;14.31;88.81;96553.69;4977015;28;20207;-68
2021/08/17 03:04:17;;;;;;;9.15;4.43;;;;;;;14.17;89.83;96554.59;4976404;28;20238;-68
2021/08/17 03:06:44;;;;;;;12.35;4.38;;;;;;;14.17;89.29;96557.25;4973069;28;20226;-68
2021/08/17 03:09:12;;;;;;;11.20;4.28;;;;;;;14.12;90.33;96559.66;4976185;28;20216;-68
2021/08/17 03:11:39;;;;;;;10.27;4.30;;;;;;;13.94;91.15;96567.19;4976501;28;20204;-68
2021/08/17 03:14:06;;;;;;;8.75;4.13;;;;;;;13.67;92.17;96556.50;4976837;28;20227;-68
2021/08/17 03:16:32;;;;;;;9.30;4.25;;;;;;;13.62;91.76;96567.69;4975405;28;20208;-68
2021/08/17 03:19:00;;;;;;;9.40;4.25;;;;;;;13.66;91.55;96562.84;4976838;28;20227;-68
2021/08/17 03:21:27;;;;;;;13.68;4.68;;;;;;;13.65;91.50;96566.50;4975584;28;20233;-68
2021/08/17 03:23:53;;;;;;;11.52;4.40;;;;;;;13.50;90.61;96565.72;4976236;28;20235;-68
2021/08/17 03:26:21;;;;;;;12.87;4.77;;;;;;;13.77;90.82;96560.53;4975987;28;20249;-68
2021/08/17 03:28:47;;;;;;;11.98;4.10;;;;;;;13.70;90.17;96570.22;4976263;28;20212;-68
2021/08/17 03:31:14;;;;;;;13.40;4.63;;;;;;;13.81;90.01;96566.25;4976260;28;20211;-70
2021/08/17 03:33:40;;;;;;;11.50;4.90;;;;;;;14.18;89.06;96572.16;4976381;28;20594;-68
2021/08/17 03:36:07;;;;;;;12.80;4.95;;;;;;;14.20;89.97;96570.13;4975302;28;20211;-68
2021/08/17 03:38:35;;;;;;;10.67;4.63;;;;;;;14.05;89.39;96569.31;4976213;28;20286;-68
2021/08/17 03:41:02;;;;;;;11.35;5.03;;;;;;;14.01;89.86;96576.03;4976248;28;20739;-69
2021/08/17 03:43:30;;;;;;;9.88;4.50;;;;;;;14.15;90.38;96575.16;4975653;28;21114;-68
2021/08/17 03:45:56;;;;;;;11.60;4.63;;;;;;;13.95;90.08;96568.00;4974938;28;20242;-68
2021/08/17 03:48:23;;;;;;;12.02;4.40;;;;;;;13.89;89.66;96572.25;4976088;28;20199;-68
2021/08/17 03:50:49;;;;;;;9.73;3.95;;;;;;;13.74;90.66;96575.97;4975971;28;20581;-68
2021/08/17 03:53:16;;;;;;;11.70;3.72;;;;;;;13.63;89.28;96579.94;4975980;28;20223;-68
2021/08/17 03:55:42;;;;;;;11.73;4.10;;;;;;;13.70;89.53;96580.81;4974758;28;20218;-68
2021/08/17 03:58:09;;;;;;;10.93;4.50;;;;;;;13.74;89.68;96587.38;4975962;28;20297;-68
2021/08/17 04:00:37;;;;;;;8.98;4.30;;;;;;;13.80;88.62;96578.69;4975859;28;20667;-68
2021/08/17 04:03:04;;;;;;;9.50;4.57;;;;;;;13.76;88.69;96582.72;4975604;28;20211;-68
2021/08/17 04:05:30;;;;;;;10.82;4.47;;;;;;;13.96;87.80;96585.56;4974892;28;20211;-68
2021/08/17 04:07:56;;;;;;;14.27;5.07;;;;;;;13.90;88.69;96588.94;4972010;28;20230;-68
2021/08/17 04:10:23;;;;;;;12.82;4.65;;;;;;;13.57;88.52;96585.97;4975635;28;20741;-69
2021/08/17 04:12:50;;;;;;;11.93;3.88;;;;;;;13.43;89.14;96586.00;4975556;28;20628;-68
2021/08/17 04:15:16;;;;;;;10.40;4.47;;;;;;;13.58;88.78;96586.78;4975328;28;20203;-68
2021/08/17 04:17:44;;;;;;;13.60;4.10;;;;;;;13.52;89.35;96592.84;4974647;28;20211;-68
2021/08/17 04:20:12;;;;;;;12.65;4.57;;;;;;;13.54;89.66;96598.75;4975478;28;20203;-68
2021/08/17 04:22:39;;;;;;;8.93;4.25;;;;;;;13.35;89.13;96601.16;4976734;28;20208;-68
2021/08/17 04:25:07;;;;;;;10.13;2.57;;;;;;;13.06;89.88;96606.47;4975644;28;20230;-68
2021/08/17 04:27:35;;;;;;;11.63;4.60;;;;;;;13.25;88.80;96616.50;4974360;28;20556;-68
2021/08/17 04:30:01;;;;;;;12.17;4.33;;;;;;;13.13;88.57;96617.97;4975486;28;20207;-68
2021/08/17 04:32:29;;;;;;;9.93;4.10;;;;;;;13.25;88.34;96621.78;4975704;28;20206;-68
2021/08/17 04:34:57;;;;;;;19.47;4.20;;;;;;;13.14;88.59;96624.91;4975150;28;20227;-67
2021/08/17 04:37:23;;;;;;;10.67;4.10;;;;;;;13.19;87.70;96627.84;4975104;28;20203;-68
2021/08/17 04:39:50;;;;;;;10.07;4.30;;;;;;;13.36;87.33;96624.00;4975095;28;20207;-68
2021/08/17 04:42:16;;;;;;;11.67;4.60;;;;;;;13.38;86.99;96626.25;4975316;28;20219;-68
2021/08/17 04:44:43;;;;;;;10.88;4.30;;;;;;;13.55;86.50;96625.03;4974814;28;20230;-67
2021/08/17 04:47:09;;;;;;;10.70;4.63;;;;;;;13.30;87.76;96624.72;4974711;28;20227;-68
2021/08/17 04:49:36;;;;;;;10.73;4.43;;;;;;;13.41;87.39;96628.53;4974765;28;20199;-67
2021/08/17 04:52:04;;;;;;;9.97;3.93;;;;;;;13.44;87.45;96630.81;4972238;28;20211;-67
2021/08/17 04:54:30;;;;;;;10.60;4.17;;;;;;;13.40;86.25;96639.28;4974815;28;20232;-67
2021/08/17 04:56:57;;;;;;;12.80;4.97;;;;;;;13.58;86.41;96635.28;4974217;28;21325;-67
2021/08/17 04:59:23;;;;;;;9.50;4.63;;;;;;;13.50;85.39;96638.03;4974593;28;20210;-67
2021/08/17 05:01:50;;;;;;;11.47;4.13;;;;;;;13.17;85.74;96635.13;4974626;28;20210;-67
2021/08/17 05:04:16;;;;;;;9.30;4.30;;;;;;;13.41;85.56;96625.06;4974738;28;20231;-67
2021/08/17 05:06:43;;;;;;;8.85;3.83;;;;;;;13.72;84.23;96625.63;4974091;28;21057;-67
2021/08/17 05:09:11;;;;;;;9.73;3.63;;;;;;;13.76;84.47;96633.03;4974730;28;20214;-67
2021/08/17 05:11:37;;;;;;;12.17;4.00;;;;;;;13.57;84.15;96638.91;4974928;28;20211;-68
2021/08/17 05:14:06;;;;;;;12.38;4.32;;;;;;;13.74;85.31;96645.63;4974471;28;20227;-68
2021/08/17 05:16:32;;;;;;;11.40;4.80;;;;;;;13.47;85.51;96650.81;4973712;28;20207;-68
2021/08/17 05:18:59;;;;;;;9.90;4.47;;;;;;;13.50;85.20;96651.28;4974830;28;20212;-68
2021/08/17 05:21:25;;;;;;;15.23;4.63;;;;;;;13.39;86.24;96651.72;4974804;28;20206;-68
2021/08/17 05:23:52;;;;;;;11.90;4.47;;;;;;;13.53;86.10;96653.53;4974388;28;20227;-68
2021/08/17 05:26:19;;;;;;;7.72;3.38;;;;;;;13.45;85.64;96651.00;4974025;28;20222;-68
2021/08/17 05:28:46;;;;;;;14.03;3.80;;;;;;;13.18;85.98;96663.25;4974041;28;20711;-68
2021/08/17 05:31:12;;;;;;;10.00;4.07;;;;;;;13.41;85.14;96660.28;4975235;28;20207;-68
2021/08/17 05:33:39;;;;;;;13.73;4.40;;;;;;;13.34;85.31;96668.34;4978433;28;20227;-68
2021/08/17 05:36:06;;;;;;;13.73;4.50;;;;;;;13.40;85.61;96668.41;4976618;28;20218;-68
2021/08/17 05:38:32;;;;;;;11.40;4.60;;;;;;;13.75;84.47;96668.47;4978166;28;20203;-68
2021/08/17 05:40:59;;;;;;;12.83;4.27;;;;;;;13.55;85.08;96675.34;4977919;28;20203;-68
2021/08/17 05:43:27;;;;;;;9.38;4.07;;;;;;;13.52;84.55;96685.50;4978179;28;20289;-68
2021/08/17 05:45:53;;;;;;;11.87;4.30;;;;;;;13.60;85.35;96688.03;4976932;28;20214;-68
2021/08/17 05:48:19;;;;;;;11.70;3.97;;;;;;;13.71;83.33;96692.84;4977876;28;20231;-68
2021/08/17 05:50:46;;;;;;;14.23;4.13;;;;;;;13.70;84.32;96685.94;4977411;28;20203;-68
2021/08/17 05:53:12;;;;;;;12.30;3.65;;;;;;;13.65;83.82;96690.97;4977850;28;20228;-68
2021/08/17 05:55:39;;;;;;;9.43;3.53;;;;;;;13.73;82.46;96689.00;4976547;28;20939;-68
2021/08/17 05:58:05;;;;;;;16.73;3.97;;;;;;;13.60;81.60;96694.16;4978047;28;20208;-68
2021/08/17 06:00:33;;;;;;;11.77;3.70;;;;;;;13.84;82.28;96690.38;4977757;28;20199;-68
2021/08/17 06:03:01;;;;;;;11.73;3.90;;;;;;;13.87;81.82;96703.25;4973849;28;20203;-68
2021/08/17 06:05:27;;;;;;;8.03;3.43;;;;;;;13.63;81.48;96706.19;4976760;28;20299;-67
2021/08/17 06:07:54;;;;;;;7.77;3.33;;;;;;;13.92;79.90;96709.63;4977244;28;20234;-67
2021/08/17 06:10:21;;;;;;;9.10;3.70;;;;;;;13.82;81.13;96719.69;4977085;28;20210;-67
2021/08/17 06:12:47;;;;;;;8.13;3.53;;;;;;;13.92;80.07;96720.22;4977595;28;20211;-67
2021/08/17 06:15:15;;;;;;;11.40;3.80;;;;;;;13.95;79.85;96711.94;4977261;28;20218;-68
2021/08/17 06:17:43;;;;;;;10.30;3.67;;;;;;;13.96;79.60;96712.72;4976841;28;20318;-68
2021/08/17 06:20:11;;;;;;;11.50;3.33;;;;;;;14.19;79.69;96708.94;4977676;28;20207;-68
2021/08/17 06:22:38;;;;;;;11.63;3.72;;;;;;;13.86;79.03;96704.25;4977047;28;21182;-68
2021/08/17 06:25:05;;;;;;;12.35;3.70;;;;;;;14.23;80.92;96694.31;4977294;28;20223;-68
2021/08/17 06:27:35;;;;;;;10.52;4.18;;;;;;;14.39;79.53;96707.34;4976017;28;20335;-68
2021/08/17 06:30:01;;;;;;;13.53;3.87;;;;;;;14.01;78.56;96695.25;4977223;28;20292;-68
2021/08/17 06:32:28;;;;;;;8.75;3.30;;;;;;;14.15;77.12;96691.78;4976734;28;20683;-68
2021/08/17 06:34:55;;;;;;;10.82;3.53;;;;;;;14.12;78.37;96700.94;4977373;28;20620;-67
2021/08/17 06:37:22;;;;;;;10.77;3.95;;;;;;;13.96;77.96;96705.59;4976157;28;20211;-68
2021/08/17 06:39:48;;;;;;;10.45;4.07;;;;;;;14.26;78.30;96708.00;4976753;28;20208;-68
2021/08/17 06:42:15;;;;;;;8.93;3.50;;;;;;;14.30;78.13;96708.47;4976565;28;20219;-68
2021/08/17 06:44:42;;;;;;;9.88;2.95;;;;;;;14.27;77.74;96716.81;4977787;28;20595;-68
2021/08/17 06:47:08;;;;;;;10.80;3.70;;;;;;;14.45;78.17;96703.94;4975671;28;20211;-68
2021/08/17 06:49:35;;;;;;;10.60;3.90;;;;;;;14.76;77.29;96706.03;4976924;28;20208;-68
2021/08/17 06:52:03;;;;;;;13.05;3.92;;;;;;;14.82;75.01;96707.94;4976843;28;20207;-68
2021/08/17 06:54:29;;;;;;;10.73;3.92;;;;;;;14.69;75.95;96702.53;4976578;28;20227;-68
2021/08/17 06:56:56;;;;;;;8.52;2.60;;;;;;;14.43;76.98;96713.91;4976183;28;20685;-68
2021/08/17 06:59:22;;;;;;;11.27;4.05;;;;;;;14.65;75.96;96705.75;4977058;28;20202;-68
2021/08/17 07:01:49;;;;;;;11.90;5.65;;;;;;;14.79;77.01;96713.63;4973755;28;20685;-67
2021/08/17 07:04:15;;;;;;;8.80;3.17;;;;;;;14.55;75.46;96722.97;4976282;28;20231;-68
2021/08/17 07:06:42;;;;;;;11.73;3.53;;;;;;;14.60;74.20;96720.59;4975519;28;20214;-68
2021/08/17 07:09:10;;;;;;;9.00;3.95;;;;;;;14.86;74.78;96711.84;4976703;28;20246;-68
2021/08/17 07:11:37;;;;;;;10.98;4.43;;;;;;;15.20;77.95;96717.22;4976813;28;20203;-68
2021/08/17 07:14:03;;;;;;;7.15;3.42;;;;;;;15.07;70.79;96716.31;4976532;28;20223;-68
2021/08/17 07:16:30;;;;;;;10.77;3.65;;;;;;;15.33;72.57;96720.00;4975898;28;20208;-68
2021/08/17 07:18:56;;;;;;;8.70;3.80;;;;;;;14.96;71.69;96724.81;4976138;28;20204;-68
2021/08/17 07:21:23;;;;;;;7.78;3.58;;;;;;;14.83;73.22;96720.19;4976213;28;20203;-68
2021/08/17 07:23:49;;;;;;;9.68;3.60;;;;;;;14.78;72.38;96705.88;4976057;28;20275;-68
2021/08/17 07:26:19;;;;;;;8.90;3.63;;;;;;;14.97;72.25;96708.69;4975818;28;20321;-68
2021/08/17 07:28:46;;;;;;;10.32;3.80;;;;;;;14.73;73.16;96717.03;4975530;28;20304;-68
2021/08/17 07:31:12;;;;;;;14.48;4.05;;;;;;;14.84;73.31;96724.50;4976429;28;20207;-70
2021/08/17 07:33:39;;;;;;;8.50;3.58;;;;;;;15.00;72.13;96726.88;4976048;28;20223;-70
2021/08/17 07:36:05;;;;;;;10.38;3.05;;;;;;;15.23;70.83;96732.78;4974944;28;20207;-68
2021/08/17 07:38:32;;;;;;;7.28;3.17;;;;;;;15.35;70.60;96737.38;4976672;28;20391;-68
2021/08/17 07:40:58;;;;;;;9.90;3.75;;;;;;;15.50;71.43;96730.13;4975510;28;20211;-68
2021/08/17 07:43:26;;;;;;;12.40;3.25;;;;;;;15.76;69.62;96729.44;4974234;28;20215;-68
2021/08/17 07:45:53;;;;;;;5.40;3.03;;;;;;;15.48;70.00;96731.34;4974858;28;20207;-68
2021/08/17 07:48:20;;;;;;;11.10;3.83;;;;;;;15.68;69.42;96732.25;4976121;28;20230;-68
2021/08/17 07:50:46;;;;;;;8.85;3.63;;;;;;;15.59;70.46;96733.44;4975667;28;20207;-68
2021/08/17 07:53:13;;;;;;;10.48;3.80;;;;;;;15.65;70.66;96732.66;4975403;28;20319;-68
2021/08/17 07:55:40;;;;;;;12.07;4.13;;;;;;;16.06;70.24;96729.81;4973118;28;20208;-68
2021/08/17 07:58:06;;;;;;;7.25;3.33;;;;;;;15.93;70.01;96742.22;4975196;28;20206;-68
2021/08/17 08:00:34;;;;;;;9.73;3.75;;;;;;;16.27;65.18;96731.56;4974984;28;20200;-68
2021/08/17 08:03:01;;;;;;;8.07;3.63;;;;;;;16.01;67.96;96740.22;4973064;28;20214;-67
2021/08/17 08:05:27;;;;;;;10.38;3.75;;;;;;;16.18;67.45;96746.81;4974968;28;20214;-68
2021/08/17 08:07:54;;;;;;;9.15;3.60;;;;;;;16.42;67.10;96742.81;4975541;28;20231;-67
2021/08/17 08:10:20;;;;;;;14.82;3.85;;;;;;;16.13;67.06;96735.16;4975583;28;20207;-68
2021/08/17 08:12:47;;;;;;;7.22;3.55;;;;;;;15.93;67.44;96729.72;4975921;28;20214;-67
2021/08/17 08:15:13;;;;;;;11.55;3.67;;;;;;;16.10;65.83;96731.06;4974707;28;20227;-67
2021/08/17 08:17:41;;;;;;;7.63;3.67;;;;;;;16.59;66.95;96736.94;4975624;28;20207;-68
2021/08/17 08:20:09;;;;;;;5.55;2.63;;;;;;;16.17;63.87;96729.22;4975045;28;20211;-68
2021/08/17 08:22:35;;;;;;;10.35;3.45;;;;;;;16.63;64.98;96728.34;4974893;28;20280;-67
2021/08/17 08:25:03;;;;;;;6.55;3.08;;;;;;;16.72;64.39;96726.31;4974750;28;20314;-68
2021/08/17 08:27:29;;;;;;;9.38;3.67;;;;;;;16.62;64.69;96720.56;4972026;28;20203;-68
2021/08/17 08:29:55;;;;;;;13.90;3.60;;;;;;;16.89;65.75;96719.56;4973723;28;20208;-67
2021/08/17 08:32:22;;;;;;;7.32;3.35;;;;;;;16.76;62.81;96724.91;4974600;28;20554;-67
2021/08/17 08:34:50;;;;;;;10.07;3.35;;;;;;;16.54;62.69;96726.09;4974551;28;20227;-68
2021/08/17 08:37:16;;;;;;;6.65;2.72;;;;;;;16.36;63.41;96731.16;4974129;28;20218;-67
2021/08/17 08:39:43;;;;;;;7.18;3.63;;;;;;;16.60;64.38;96735.94;4974864;28;20203;-67
2021/08/17 08:42:10;;;;;;;7.57;2.92;;;;;;;16.95;62.90;96718.78;4974332;28;20203;-67
2021/08/17 08:44:37;;;;;;;8.38;3.42;;;;;;;17.08;64.60;96716.09;4974363;28;20235;-67
2021/08/17 08:47:04;;;;;;;11.70;3.63;;;;;;;17.17;62.71;96721.84;4974055;28;20612;-67
2021/08/17 08:49:33;;;;;;;10.77;3.50;;;;;;;17.70;62.35;96714.63;4974470;28;20651;-68
2021/08/17 08:52:01;;;;;;;10.27;3.92;;;;;;;17.43;62.30;96700.53;4974250;28;20573;-68
2021/08/17 08:54:28;;;;;;;5.57;2.70;;;;;;;17.21;61.57;96700.94;4974256;28;20833;-67
2021/08/17 08:56:55;;;;;;;9.15;4.00;;;;;;;17.55;61.46;96712.16;4973113;28;20207;-67
2021/08/17 08:59:22;;;;;;;8.93;3.47;;;;;;;17.40;60.60;96708.94;4975047;28;20233;-67
2021/08/17 09:01:50;;;;;;;9.15;3.35;;;;;;;17.67;61.74;96704.34;4973846;28;20211;-67
2021/08/17 09:04:17;;;;;;;12.02;3.60;;;;;;;17.75;59.81;96710.28;4972350;28;20232;-67
2021/08/17 09:06:52;;;;;;;7.38;3.05;;;;;;;17.50;60.07;96701.34;4974476;28;20214;-67
2021/08/17 09:09:20;;;;;;;8.60;3.78;;;;;;;17.47;60.79;96699.06;4977592;28;20952;-68
2021/08/17 09:11:49;;;;;;;5.03;2.35;;;;;;;17.31;60.19;96699.53;4977107;28;20392;-67
2021/08/17 09:14:18;;;;;;;6.95;3.05;;;;;;;17.22;60.28;96692.75;4977724;28;20492;-67
2021/08/17 09:16:46;;;;;;;7.53;3.00;;;;;;;17.39;61.30;96690.50;4977348;28;20207;-67
2021/08/17 09:19:33;;;;;;;11.30;3.47;;;;;;;17.89;59.02;96695.88;4977693;28;20671;-67
2021/08/17 09:22:02;;;;;;;7.32;3.03;;;;;;;17.53;59.31;96690.25;4977194;28;20211;-67
2021/08/17 09:24:32;;;;;;;7.18;2.88;;;;;;;17.59;60.47;96701.94;4977826;28;20227;-67
2021/08/17 09:27:01;;;;;;;9.07;3.45;;;;;;;17.76;61.18;96695.94;4976822;28;21039;-67
2021/08/17 09:29:36;;;;;;;5.38;2.97;;;;;;;18.04;60.33;96697.25;4976853;28;20231;-67
2021/08/17 09:32:14;;;;;;;12.10;3.38;;;;;;;17.93;59.97;96692.56;4977217;28;20461;-67
2021/08/17 09:34:42;;;;;;;9.02;3.60;;;;;;;17.91;59.73;96694.66;4977009;28;20337;-68
2021/08/17 09:37:11;;;;;;;6.95;3.15;;;;;;;17.50;59.61;96693.34;4976414;28;20222;-67
2021/08/17 09:39:44;;;;;;;7.38;3.60;;;;;;;17.71;58.88;96692.28;4977974;28;20211;-68
2021/08/17 09:42:20;;;;;;;8.25;3.60;;;;;;;17.79;57.61;96682.19;4977930;28;20213;-67
2021/08/17 09:45:01;;;;;;;8.05;3.67;;;;;;;17.80;58.30;96676.63;4977582;28;20223;-67
2021/08/17 09:47:28;;;;;;;7.95;3.47;;;;;;;17.82;58.48;96681.78;4974109;28;20679;-68
2021/08/17 09:49:54;;;;;;;9.77;3.70;;;;;;;17.83;59.74;96683.38;4977031;28;20918;-67
2021/08/17 09:52:21;;;;;;;10.32;3.90;;;;;;;18.43;57.50;96679.25;4977703;28;20755;-68
2021/08/17 09:54:50;;;;;;;8.88;3.85;;;;;;;19.41;56.84;96682.81;4977431;28;20235;-67
2021/08/17 09:57:17;;;;;;;13.23;4.20;;;;;;;19.64;57.64;96680.31;4977216;28;20218;-68
2021/08/17 09:59:45;;;;;;;8.07;3.58;;;;;;;20.11;59.46;96669.69;4977241;28;20208;-68
2021/08/17 10:02:13;;;;;;;6.72;3.63;;;;;;;20.04;54.34;96663.59;4977888;28;20208;-68
2021/08/17 10:04:41;;;;;;;9.27;4.22;;;;;;;20.17;54.89;96657.25;4977455;28;20235;-67
2021/08/17 10:07:09;;;;;;;9.10;4.45;;;;;;;20.66;54.21;96655.09;4976373;28;20586;-68
2021/08/17 10:09:37;;;;;;;10.73;3.92;;;;;;;20.50;53.95;96647.72;4977207;28;20560;-68
2021/08/17 10:12:07;;;;;;;11.88;4.55;;;;;;;20.16;55.87;96655.63;4977722;28;20204;-68
2021/08/17 10:14:35;;;;;;;8.35;4.00;;;;;;;20.58;56.56;96652.75;4977101;28;20226;-68
2021/08/17 10:17:01;;;;;;;6.97;3.60;;;;;;;20.10;53.80;96654.69;4976755;28;20207;-68
2021/08/17 10:19:32;;;;;;;8.45;3.80;;;;;;;19.92;56.96;96643.16;4976955;28;20199;-68
2021/08/17 10:22:00;;;;;;;9.20;4.22;;;;;;;19.96;57.75;96647.03;4976954;28;20207;-68
2021/08/17 10:24:33;;;;;;;8.98;3.92;;;;;;;19.49;56.10;96657.63;4976860;28;20226;-68
2021/08/17 10:27:21;;;;;;;6.82;3.40;;;;;;;19.09;55.53;96648.34;4977486;28;20214;-68
2021/08/17 10:29:59;;;;;;;12.40;4.15;;;;;;;19.65;59.10;96642.66;4976929;28;20262;-68
2021/08/17 10:32:37;;;;;;;9.68;3.80;;;;;;;19.53;57.53;96632.91;4977013;28;20225;-68
2021/08/17 10:35:05;;;;;;;10.65;4.03;;;;;;;19.20;58.60;96639.63;4976944;28;20227;-67
2021/08/17 10:37:31;;;;;;;10.43;4.65;;;;;;;19.49;58.34;96625.53;4976291;28;20203;-67
2021/08/17 10:39:58;;;;;;;6.60;3.58;;;;;;;19.51;57.49;96628.81;4977060;28;20702;-68
2021/08/17 10:42:27;;;;;;;10.55;4.25;;;;;;;19.36;56.64;96626.53;4977353;28;20198;-67
2021/08/17 10:45:14;;;;;;;10.10;4.18;;;;;;;19.13;58.85;96623.66;4976791;28;20247;-68
2021/08/17 10:47:41;;;;;;;11.50;4.70;;;;;;;19.14;58.66;96627.97;4974366;28;20227;-68
2021/08/17 10:50:08;;;;;;;13.73;5.20;;;;;;;19.35;58.19;96632.09;4977344;28;20223;-68
2021/08/17 10:52:41;;;;;;;7.97;4.10;;;;;;;19.79;58.78;96622.75;4977168;28;20205;-68
2021/08/17 10:55:27;;;;;;;12.27;4.80;;;;;;;19.40;57.29;96627.72;4976558;28;20325;-67
2021/08/17 10:57:57;;;;;;;11.02;4.60;;;;;;;19.25;57.82;96629.09;4976191;28;20207;-67
2021/08/17 11:00:55;;;;;;;8.35;3.40;;;;;;;19.23;58.41;96631.16;4977264;28;20207;-68
2021/08/17 11:03:39;;;;;;;11.80;4.63;;;;;;;19.52;59.12;96627.78;4971664;28;20238;-68
2021/08/17 11:06:06;;;;;;;7.97;4.35;;;;;;;18.89;58.47;96628.16;4975610;28;20218;-68
2021/08/17 11:08:38;;;;;;;10.40;4.40;;;;;;;19.44;58.38;96626.22;4977106;28;20218;-68
2021/08/17 11:11:16;;;;;;;8.88;3.78;;;;;;;19.40;56.76;96619.69;4976439;28;20284;-68
2021/08/17 11:14:00;;;;;;;7.50;3.55;;;;;;;19.51;58.49;96612.78;4976553;28;20230;-68
2021/08/17 11:16:27;;;;;;;6.47;3.88;;;;;;;19.65;55.67;96615.91;4975544;28;20208;-67
2021/08/17 11:18:54;;;;;;;8.18;2.58;;;;;;;19.50;54.15;96617.31;4976491;28;20207;-68
2021/08/17 11:21:35;;;;;;;8.98;3.78;;;;;;;19.84;52.78;96609.47;4976609;28;20214;-68
2021/08/17 11:24:14;;;;;;;7.88;4.07;;;;;;;19.80;51.67;96613.66;4976324;28;20227;-68
2021/08/17 11:26:43;;;;;;;10.90;4.45;;;;;;;19.64;51.50;96603.56;4976002;28;20214;-68
2021/08/17 11:29:16;;;;;;;9.52;3.72;;;;;;;20.30;51.81;96596.31;4975897;28;20231;-68
2021/08/17 11:31:45;;;;;;;7.30;3.78;;;;;;;20.33;52.12;96603.91;4975967;28;20218;-68